createdAt,value
2019-05-22T00:02:37.918Z,16.50
2019-05-22T00:05:35.579Z,17.10
2019-05-22T00:08:08.712Z,15.27
2019-05-22T00:10:41.660Z,14.60
2019-05-22T00:13:14.853Z,17.03
2019-05-22T00:15:49.305Z,15.67
2019-05-22T00:18:23.333Z,15.93
2019-05-22T00:20:54.023Z,15.70
2019-05-22T00:23:26.186Z,16.00
2019-05-22T00:25:56.274Z,15.67
2019-05-22T00:28:27.258Z,15.43
2019-05-22T00:30:59.042Z,14.90
2019-05-22T00:33:29.720Z,15.43
2019-05-22T00:36:02.216Z,15.80
2019-05-22T00:38:34.077Z,16.90
2019-05-22T00:41:08.091Z,16.60
2019-05-22T00:43:39.547Z,16.07
2019-05-22T00:46:12.054Z,17.13
2019-05-22T00:48:44.031Z,18.07
2019-05-22T00:51:29.513Z,17.30
2019-05-22T00:54:38.379Z,15.57
2019-05-22T00:57:21.463Z,16.77
2019-05-22T00:59:54.263Z,16.17
2019-05-22T01:02:28.021Z,15.60
2019-05-22T01:04:59.735Z,16.40
2019-05-22T01:07:37.434Z,16.77
2019-05-22T01:10:11.799Z,15.80
2019-05-22T01:12:44.058Z,17.10
2019-05-22T01:15:18.226Z,14.37
2019-05-22T01:17:50.376Z,16.83
2019-05-22T01:20:24.466Z,16.50
2019-05-22T01:22:57.261Z,15.97
2019-05-22T01:25:28.929Z,15.10
2019-05-22T01:28:00.194Z,17.93
2019-05-22T01:30:54.096Z,16.93
2019-05-22T01:33:30.239Z,15.07
2019-05-22T01:36:24.030Z,16.50
2019-05-22T01:39:00.927Z,14.70
2019-05-22T01:41:33.305Z,15.80
2019-05-22T01:44:05.987Z,14.90
2019-05-22T01:46:39.999Z,15.27
2019-05-22T01:49:13.000Z,15.43
2019-05-22T01:51:44.553Z,15.70
2019-05-22T01:54:14.790Z,13.73
2019-05-22T01:56:45.951Z,15.80
2019-05-22T01:59:15.985Z,16.90
2019-05-22T02:02:06.927Z,16.67
2019-05-22T02:04:38.597Z,15.00
2019-05-22T02:07:10.048Z,17.57
2019-05-22T02:09:42.387Z,17.10
2019-05-22T02:12:31.317Z,17.43
2019-05-22T02:15:01.180Z,15.70
2019-05-22T02:17:35.595Z,16.47
2019-05-22T02:20:08.618Z,16.00
2019-05-22T02:22:40.800Z,16.07
2019-05-22T02:25:14.028Z,17.03
2019-05-22T02:27:44.769Z,16.50
2019-05-22T02:30:15.699Z,17.23
2019-05-22T02:32:48.507Z,16.57
2019-05-22T02:35:19.098Z,16.63
2019-05-22T02:37:49.431Z,14.90
2019-05-22T02:40:26.055Z,16.97
2019-05-22T02:42:56.636Z,16.23
2019-05-22T02:45:27.307Z,17.30
2019-05-22T02:47:58.500Z,15.80
2019-05-22T02:50:30.398Z,16.67
2019-05-22T02:53:01.663Z,17.57
2019-05-22T02:55:32.966Z,15.67
2019-05-22T02:58:04.671Z,15.77
2019-05-22T03:01:00.528Z,17.33
2019-05-22T03:03:33.951Z,15.57
2019-05-22T03:06:06.732Z,16.17
2019-05-22T03:09:27.895Z,15.93
2019-05-22T03:12:06.187Z,17.00
2019-05-22T03:14:37.720Z,16.60
2019-05-22T03:17:12.706Z,17.57
2019-05-22T03:19:45.787Z,16.97
2019-05-22T03:22:27.118Z,16.43
2019-05-22T03:24:59.945Z,16.23
2019-05-22T03:27:42.816Z,16.40
2019-05-22T03:30:21.667Z,14.67
2019-05-22T03:32:52.298Z,16.50
2019-05-22T03:35:23.808Z,16.93
2019-05-22T03:37:54.556Z,17.07
2019-05-22T03:40:26.845Z,17.30
2019-05-22T03:42:57.473Z,17.50
2019-05-22T03:45:28.373Z,17.53
2019-05-22T03:47:59.675Z,17.90
2019-05-22T03:50:31.530Z,17.90
2019-05-22T03:53:17.147Z,17.37
2019-05-22T03:55:48.536Z,18.83
2019-05-22T03:58:20.062Z,19.57
2019-05-22T04:00:51.991Z,20.07
2019-05-22T04:03:23.226Z,19.50
2019-05-22T04:05:54.836Z,19.13
2019-05-22T04:08:27.642Z,19.07
2019-05-22T04:11:03.696Z,19.50
2019-05-22T04:13:34.685Z,20.17
2019-05-22T04:16:08.705Z,20.53
2019-05-22T04:18:39.336Z,18.90
2019-05-22T04:21:09.777Z,19.60
2019-05-22T04:23:40.078Z,18.03
2019-05-22T04:26:12.614Z,18.70
2019-05-22T04:28:51.224Z,19.30
2019-05-22T04:31:36.738Z,18.47
2019-05-22T04:34:07.753Z,19.37
2019-05-22T04:36:38.148Z,18.70
2019-05-22T04:39:11.538Z,20.00
2019-05-22T04:41:43.407Z,16.27
2019-05-22T04:44:13.719Z,17.40
2019-05-22T04:46:43.993Z,18.23
2019-05-22T04:49:14.539Z,17.43
2019-05-22T04:51:45.067Z,19.33
2019-05-22T04:54:15.243Z,19.03
2019-05-22T04:56:45.619Z,19.97
2019-05-22T04:59:16.346Z,19.73
2019-05-22T05:01:46.703Z,19.50
2019-05-22T05:04:17.199Z,19.73
2019-05-22T05:06:47.984Z,20.60
2019-05-22T05:09:19.152Z,18.80
2019-05-22T05:11:49.482Z,18.57
2019-05-22T05:14:19.338Z,19.40
2019-05-22T05:17:09.361Z,18.80
2019-05-22T05:19:39.643Z,19.73
2019-05-22T05:22:11.694Z,19.00
2019-05-22T05:24:42.489Z,19.97
2019-05-22T05:27:12.686Z,19.77
2019-05-22T05:29:42.988Z,18.60
2019-05-22T05:32:12.964Z,21.10
2019-05-22T05:35:05.763Z,18.10
2019-05-22T05:37:36.609Z,19.17
2019-05-22T05:40:36.388Z,18.03
2019-05-22T05:43:09.883Z,18.47
2019-05-22T05:45:42.667Z,19.00
2019-05-22T05:48:24.012Z,16.87
2019-05-22T05:51:30.737Z,17.27
2019-05-22T05:54:05.566Z,16.30
2019-05-22T05:56:37.137Z,18.47
2019-05-22T05:59:08.520Z,17.67
2019-05-22T06:01:57.929Z,16.50
2019-05-22T06:04:37.882Z,16.60
2019-05-22T06:12:47.606Z,15.97
2019-05-22T06:15:19.272Z,15.83
2019-05-22T06:18:39.969Z,15.50
2019-05-22T06:21:10.836Z,14.60
2019-05-22T06:24:25.299Z,15.60
2019-05-22T06:27:25.692Z,14.57
2019-05-22T06:30:02.709Z,14.50
2019-05-22T06:33:08.688Z,13.77
2019-05-22T06:35:40.380Z,13.10
2019-05-22T06:38:46.374Z,14.70
2019-05-22T06:41:17.031Z,13.87
2019-05-22T06:44:25.896Z,12.17
2019-05-22T06:46:56.096Z,10.83
2019-05-22T06:49:47.193Z,9.33
2019-05-22T06:52:18.150Z,9.93
2019-05-22T06:54:49.187Z,9.93
2019-05-22T06:57:23.116Z,8.83
2019-05-22T07:00:11.402Z,9.60
2019-05-22T07:02:26.129Z,9.27
2019-05-22T07:04:56.656Z,9.60
2019-05-22T07:07:28.902Z,9.60
2019-05-22T07:09:58.879Z,10.10
2019-05-22T07:12:30.224Z,10.63
2019-05-22T07:15:50.409Z,10.00
2019-05-22T07:18:24.009Z,8.73
2019-05-22T07:20:57.728Z,10.10
2019-05-22T07:23:29.635Z,8.77
2019-05-22T07:26:02.017Z,7.80
2019-05-22T07:28:33.241Z,8.13
2019-05-22T07:31:09.569Z,8.10
2019-05-22T07:33:39.462Z,7.37
2019-05-22T07:36:15.258Z,7.80
2019-05-22T07:38:42.270Z,7.17
2019-05-22T07:41:12.443Z,8.07
2019-05-22T07:43:42.741Z,8.43
2019-05-22T07:46:13.658Z,5.70
2019-05-22T07:48:44.147Z,6.13
2019-05-22T07:51:15.064Z,6.80
2019-05-22T07:53:47.501Z,7.00
2019-05-22T07:56:20.009Z,6.00
2019-05-22T07:58:52.139Z,5.67
2019-05-22T08:01:23.215Z,6.53
2019-05-22T08:03:54.331Z,7.17
2019-05-22T08:06:24.587Z,9.30
2019-05-22T08:08:55.727Z,8.17
2019-05-22T08:11:26.213Z,8.40
2019-05-22T08:13:58.072Z,7.83
2019-05-22T08:16:30.004Z,7.93
2019-05-22T08:19:00.138Z,3.83
2019-05-22T08:21:30.838Z,3.53
2019-05-22T08:24:02.183Z,4.47
2019-05-22T08:26:34.070Z,3.93
2019-05-22T08:29:07.154Z,4.13
2019-05-22T08:31:39.269Z,5.03
2019-05-22T08:34:10.604Z,4.00
2019-05-22T08:36:40.625Z,4.90
2019-05-22T08:39:11.544Z,5.83
2019-05-22T08:41:43.922Z,5.27
2019-05-22T08:44:17.309Z,3.77
2019-05-22T08:46:46.741Z,3.50
2019-05-22T08:49:17.203Z,6.33
2019-05-22T08:51:47.310Z,7.37
2019-05-22T08:54:18.307Z,5.97
2019-05-22T08:56:51.396Z,4.50
2019-05-22T08:59:22.214Z,5.47
2019-05-22T09:01:52.204Z,4.17
2019-05-22T09:04:22.250Z,3.90
2019-05-22T09:06:52.223Z,3.20
2019-05-22T09:09:22.505Z,2.07
2019-05-22T09:11:52.744Z,2.23
2019-05-22T09:14:23.259Z,2.57
2019-05-22T09:16:54.338Z,6.10
2019-05-22T09:19:24.667Z,2.70
2019-05-22T09:21:54.783Z,2.33
2019-05-22T09:24:25.887Z,2.60
2019-05-22T09:26:56.331Z,1.80
2019-05-22T09:29:26.724Z,1.87
2019-05-22T09:31:57.479Z,2.53
2019-05-22T09:34:27.775Z,2.37
2019-05-22T09:36:57.994Z,1.77
2019-05-22T09:39:27.959Z,1.40
2019-05-22T09:41:57.796Z,2.07
2019-05-22T09:44:27.811Z,2.03
2019-05-22T09:46:57.741Z,2.03
2019-05-22T09:49:29.545Z,2.43
2019-05-22T09:51:59.580Z,2.50
2019-05-22T09:54:29.437Z,2.87
2019-05-22T09:56:59.848Z,3.17
2019-05-22T09:59:30.115Z,2.67
2019-05-22T10:02:00.451Z,1.97
2019-05-22T10:04:30.975Z,1.87
2019-05-22T10:07:01.127Z,3.10
2019-05-22T10:09:33.010Z,2.80
2019-05-22T10:12:04.961Z,2.93
2019-05-22T10:14:35.961Z,2.67
2019-05-22T10:17:07.859Z,2.83
2019-05-22T10:19:38.066Z,3.00
2019-05-22T10:22:10.503Z,3.10
2019-05-22T10:24:49.849Z,2.07
2019-05-22T10:27:18.565Z,1.93
2019-05-22T10:29:48.477Z,2.03
2019-05-22T10:32:18.425Z,2.53
2019-05-22T10:34:48.391Z,2.43
2019-05-22T10:37:19.848Z,2.60
2019-05-22T10:39:50.426Z,2.00
2019-05-22T10:42:20.589Z,1.50
2019-05-22T10:44:52.497Z,1.40
2019-05-22T10:47:23.343Z,1.90
2019-05-22T10:49:53.627Z,1.70
2019-05-22T10:52:24.389Z,2.00
2019-05-22T10:54:56.125Z,2.13
2019-05-22T10:57:26.298Z,1.63
2019-05-22T10:59:56.525Z,2.40
2019-05-22T11:02:26.536Z,2.50
2019-05-22T11:04:56.945Z,2.37
2019-05-22T11:07:28.875Z,1.80
2019-05-22T11:09:59.353Z,1.60
2019-05-22T11:12:29.370Z,1.70
2019-05-22T11:14:59.639Z,1.63
2019-05-22T11:17:29.890Z,1.80
2019-05-22T11:20:00.578Z,1.50
2019-05-22T11:22:34.859Z,1.47
2019-05-22T11:25:03.469Z,2.20
2019-05-22T11:27:33.979Z,2.03
2019-05-22T11:30:04.945Z,1.80
2019-05-22T11:32:35.655Z,1.53
2019-05-22T11:35:06.743Z,1.70
2019-05-22T11:37:37.062Z,1.90
2019-05-22T11:40:08.551Z,1.53
2019-05-22T11:42:39.554Z,3.13
2019-05-22T11:45:12.367Z,1.60
2019-05-22T11:47:43.369Z,2.20
2019-05-22T11:50:15.224Z,1.77
2019-05-22T11:52:46.351Z,2.60
2019-05-22T11:55:17.583Z,1.67
2019-05-22T11:57:47.855Z,1.63
2019-05-22T12:00:20.154Z,1.70
2019-05-22T12:02:51.498Z,2.10
2019-05-22T12:05:23.285Z,1.77
2019-05-22T12:07:53.493Z,1.77
2019-05-22T12:10:25.350Z,1.63
2019-05-22T12:12:56.096Z,1.80
2019-05-22T12:15:29.936Z,1.40
2019-05-22T12:18:00.614Z,1.47
2019-05-22T12:20:31.583Z,1.20
2019-05-22T12:23:01.719Z,1.53
2019-05-22T12:25:32.151Z,1.70
2019-05-22T12:28:02.614Z,1.80
2019-05-22T12:30:32.743Z,1.40
2019-05-22T12:33:03.258Z,1.90
2019-05-22T12:35:34.124Z,1.60
2019-05-22T12:38:04.548Z,1.57
2019-05-22T12:40:36.651Z,1.50
2019-05-22T12:43:07.669Z,2.57
2019-05-22T12:45:37.448Z,1.50
2019-05-22T12:48:07.505Z,1.60
2019-05-22T12:50:37.951Z,1.80
2019-05-22T12:53:12.259Z,1.80
2019-05-22T12:55:43.397Z,1.63
2019-05-22T12:58:13.743Z,1.60
2019-05-22T13:00:44.850Z,1.57
2019-05-22T13:03:15.307Z,1.47
2019-05-22T13:05:46.365Z,1.60
2019-05-22T13:08:16.613Z,1.60
2019-05-22T13:10:47.032Z,2.90
2019-05-22T13:13:17.132Z,1.20
2019-05-22T13:15:48.735Z,1.70
2019-05-22T13:18:20.535Z,1.50
2019-05-22T13:20:54.248Z,1.63
2019-05-22T13:23:27.649Z,1.60
2019-05-22T13:25:57.618Z,2.00
2019-05-22T13:28:30.554Z,1.60
2019-05-22T13:31:01.821Z,1.60
2019-05-22T13:33:33.047Z,1.27
2019-05-22T13:36:03.502Z,1.97
2019-05-22T13:38:33.430Z,1.70
2019-05-22T13:41:04.470Z,2.20
2019-05-22T13:43:35.051Z,2.10
2019-05-22T13:46:05.951Z,1.50
2019-05-22T13:48:39.965Z,2.20
2019-05-22T13:51:10.754Z,2.20
2019-05-22T13:53:43.028Z,1.60
2019-05-22T13:56:14.151Z,1.87
2019-05-22T13:58:44.474Z,1.90
2019-05-22T14:01:14.412Z,1.70
2019-05-22T14:03:44.354Z,2.00
2019-05-22T14:06:14.272Z,1.30
2019-05-22T14:08:44.752Z,2.10
2019-05-22T14:11:16.076Z,1.87
2019-05-22T14:13:47.506Z,2.00
2019-05-22T14:16:17.712Z,1.63
2019-05-22T14:18:47.591Z,1.57
2019-05-22T14:21:17.555Z,1.63
2019-05-22T14:23:47.411Z,1.50
2019-05-22T14:26:17.846Z,1.40
2019-05-22T14:28:49.810Z,1.40
2019-05-22T14:31:20.140Z,1.40
2019-05-22T14:33:50.475Z,1.50
2019-05-22T14:36:21.079Z,1.23
2019-05-22T14:38:52.420Z,1.60
2019-05-22T14:41:22.943Z,1.40
2019-05-22T14:43:53.459Z,1.80
2019-05-22T14:46:24.067Z,1.40
2019-05-22T14:48:54.612Z,2.00
2019-05-22T14:51:25.681Z,1.67
2019-05-22T14:53:57.078Z,1.50
2019-05-22T14:56:27.293Z,1.20
2019-05-22T14:58:57.355Z,1.20
2019-05-22T15:01:28.232Z,1.73
2019-05-22T15:03:58.707Z,2.17
2019-05-22T15:06:28.693Z,1.40
2019-05-22T15:08:58.813Z,1.53
2019-05-22T15:11:28.752Z,1.20
2019-05-22T15:13:58.658Z,1.60
2019-05-22T15:16:29.445Z,2.27
2019-05-22T15:18:59.350Z,1.50
2019-05-22T15:21:29.879Z,1.50
2019-05-22T15:24:01.598Z,1.40
2019-05-22T15:26:32.022Z,2.50
2019-05-22T15:29:02.071Z,1.33
2019-05-22T15:31:33.427Z,1.50
2019-05-22T15:34:04.258Z,1.27
2019-05-22T15:36:34.491Z,1.63
2019-05-22T15:39:06.246Z,1.30
2019-05-22T15:41:36.660Z,2.10
2019-05-22T15:44:06.793Z,1.60
2019-05-22T15:46:38.205Z,1.30
2019-05-22T15:49:10.440Z,1.50
2019-05-22T15:51:42.759Z,1.60
2019-05-22T15:54:13.353Z,1.70
2019-05-22T15:56:44.243Z,1.90
2019-05-22T15:59:15.076Z,1.80
2019-05-22T16:01:47.589Z,1.60
2019-05-22T16:04:20.762Z,1.10
2019-05-22T16:06:52.399Z,1.60
2019-05-22T16:09:25.255Z,1.17
2019-05-22T16:11:56.178Z,1.40
2019-05-22T16:14:45.419Z,1.30
2019-05-22T16:17:16.238Z,1.03
2019-05-22T16:19:48.746Z,1.30
2019-05-22T16:22:19.335Z,1.33
2019-05-22T16:24:50.056Z,1.57
2019-05-22T16:27:20.907Z,1.47
2019-05-22T16:29:52.441Z,2.23
2019-05-22T16:32:24.591Z,2.00
2019-05-22T16:35:40.072Z,1.70
2019-05-22T16:38:10.066Z,1.73
2019-05-22T16:40:41.264Z,1.70
2019-05-22T16:43:11.256Z,2.20
2019-05-22T16:45:42.532Z,1.40
2019-05-22T16:48:27.725Z,2.30
2019-05-22T16:50:46.861Z,2.10
2019-05-22T16:53:19.408Z,2.37
2019-05-22T16:55:50.451Z,1.83
2019-05-22T16:58:21.127Z,2.47
2019-05-22T17:00:51.875Z,5.50
2019-05-22T17:03:23.600Z,3.97
2019-05-22T17:05:53.694Z,4.57
2019-05-22T17:08:23.820Z,2.27
2019-05-22T17:10:54.563Z,1.90
2019-05-22T17:13:26.034Z,1.50
2019-05-22T17:15:57.191Z,2.60
2019-05-22T17:18:45.572Z,3.80
2019-05-22T17:21:02.355Z,1.97
2019-05-22T17:23:33.171Z,1.90
2019-05-22T17:26:05.161Z,5.57
2019-05-22T17:28:36.133Z,2.03
2019-05-22T17:31:07.392Z,1.90
2019-05-22T17:33:38.377Z,2.17
2019-05-22T17:36:09.459Z,1.70
2019-05-22T17:38:40.757Z,1.80
2019-05-22T17:41:12.915Z,1.60
2019-05-22T17:43:44.934Z,1.90
2019-05-22T17:46:16.365Z,2.33
2019-05-22T17:48:47.377Z,2.00
2019-05-22T17:51:18.768Z,1.73
2019-05-22T17:53:49.071Z,2.80
2019-05-22T17:56:19.078Z,2.60
2019-05-22T17:58:48.983Z,1.93
2019-05-22T18:01:38.270Z,2.33
2019-05-22T18:04:08.457Z,2.20
2019-05-22T18:06:38.496Z,1.87
2019-05-22T18:09:09.760Z,2.43
2019-05-22T18:11:40.166Z,2.60
2019-05-22T18:14:11.194Z,3.43
2019-05-22T18:16:42.086Z,2.60
2019-05-22T18:19:12.456Z,2.40
2019-05-22T18:21:42.490Z,2.30
2019-05-22T18:24:12.367Z,2.77
2019-05-22T18:26:42.290Z,2.83
2019-05-22T18:29:12.774Z,2.30
2019-05-22T18:31:43.653Z,2.77
2019-05-22T18:34:14.364Z,2.90
2019-05-22T18:36:44.571Z,2.63
2019-05-22T18:39:16.095Z,2.60
2019-05-22T18:41:45.957Z,2.47
2019-05-22T18:44:15.929Z,2.27
2019-05-22T18:46:46.028Z,2.80
2019-05-22T18:49:15.977Z,2.70
2019-05-22T18:51:46.393Z,3.23
2019-05-22T18:54:18.949Z,2.50
2019-05-22T18:56:47.852Z,3.07
2019-05-22T18:59:17.989Z,2.27
2019-05-22T19:01:48.578Z,2.90
2019-05-22T19:04:18.871Z,3.77
2019-05-22T19:06:48.907Z,3.37
2019-05-22T19:09:18.888Z,2.67
2019-05-22T19:11:48.875Z,2.87
2019-05-22T19:14:19.047Z,3.73
2019-05-22T19:16:48.905Z,3.10
2019-05-22T19:19:19.960Z,2.57
2019-05-22T19:21:50.517Z,2.60
2019-05-22T19:24:20.806Z,2.10
2019-05-22T19:26:50.719Z,2.30
2019-05-22T19:29:20.758Z,2.83
2019-05-22T19:31:50.586Z,2.10
2019-05-22T19:34:20.534Z,2.60
2019-05-22T19:36:50.545Z,3.20
2019-05-22T19:39:20.965Z,2.40
2019-05-22T19:42:01.974Z,3.00
2019-05-22T19:44:23.585Z,2.83
2019-05-22T19:46:54.171Z,3.40
2019-05-22T19:49:25.408Z,2.70
2019-05-22T19:51:57.774Z,2.90
2019-05-22T19:54:27.952Z,3.10
2019-05-22T19:56:57.886Z,3.30
2019-05-22T19:59:46.943Z,3.30
2019-05-22T20:02:18.291Z,2.90
2019-05-22T20:04:48.379Z,3.40
2019-05-22T20:07:18.574Z,3.17
2019-05-22T20:09:49.230Z,3.30
2019-05-22T20:12:19.849Z,3.30
2019-05-22T20:14:50.070Z,4.20
2019-05-22T20:17:20.331Z,3.90
2019-05-22T20:19:51.176Z,4.13
2019-05-22T20:22:21.724Z,4.20
2019-05-22T20:24:51.891Z,4.70
2019-05-22T20:27:22.030Z,4.30
2019-05-22T20:29:52.750Z,4.17
2019-05-22T20:32:24.827Z,3.37
2019-05-22T20:34:54.747Z,3.70
2019-05-22T20:37:25.178Z,3.60
2019-05-22T20:39:55.310Z,3.83
2019-05-22T20:42:26.595Z,4.03
2019-05-22T20:44:57.798Z,4.07
2019-05-22T20:47:28.612Z,4.10
2019-05-22T20:50:00.140Z,3.67
2019-05-22T20:52:31.472Z,4.83
2019-05-22T20:55:02.150Z,4.00
2019-05-22T20:57:33.554Z,3.40
2019-05-22T21:00:04.514Z,4.60
2019-05-22T21:02:35.913Z,4.30
2019-05-22T21:05:09.415Z,4.23
2019-05-22T21:07:43.192Z,4.27
2019-05-22T21:10:32.561Z,4.70
2019-05-22T21:13:02.862Z,3.37
2019-05-22T21:15:34.010Z,3.43
2019-05-22T21:18:05.022Z,4.10
2019-05-22T21:20:53.500Z,4.73
2019-05-22T21:23:11.459Z,3.87
2019-05-22T21:25:42.506Z,4.63
2019-05-22T21:28:12.739Z,3.83
2019-05-22T21:30:44.774Z,4.60
2019-05-22T21:33:14.817Z,4.47
2019-05-22T21:35:44.908Z,4.47
2019-05-22T21:38:16.027Z,4.00
2019-05-22T21:40:46.316Z,4.77
2019-05-22T21:43:16.990Z,4.63
2019-05-22T21:45:47.043Z,4.00
2019-05-22T21:48:17.472Z,4.07
2019-05-22T21:50:47.831Z,4.10
2019-05-22T21:53:18.298Z,3.53
2019-05-22T21:56:02.092Z,4.60
2019-05-22T21:58:20.259Z,4.37
2019-05-22T22:01:27.090Z,4.40
2019-05-22T22:04:06.691Z,4.73
2019-05-22T22:06:36.563Z,4.50
2019-05-22T22:09:07.576Z,3.87
2019-05-22T22:11:38.860Z,4.97
2019-05-22T22:14:10.840Z,5.03
2019-05-22T22:16:41.888Z,4.53
2019-05-22T22:19:13.082Z,3.90
2019-05-22T22:21:45.957Z,4.70
2019-05-22T22:27:07.278Z,4.20
2019-05-22T22:29:38.659Z,4.47
2019-05-22T22:32:13.061Z,11.60
2019-05-22T22:34:47.625Z,4.17
2019-05-22T22:37:21.267Z,6.63
2019-05-22T22:39:56.862Z,5.20
2019-05-22T22:42:31.686Z,4.67
2019-05-22T22:45:03.629Z,4.80
2019-05-22T22:47:41.503Z,4.47
2019-05-22T22:50:13.131Z,4.60
2019-05-22T22:52:46.940Z,4.50
2019-05-22T22:55:19.059Z,5.03
2019-05-22T22:57:52.850Z,4.57
2019-05-22T23:00:40.019Z,4.10
2019-05-22T23:03:14.527Z,5.10
2019-05-22T23:05:45.190Z,4.30
2019-05-22T23:08:19.935Z,4.17
2019-05-22T23:10:49.959Z,4.50
2019-05-22T23:13:21.565Z,3.93
2019-05-22T23:15:51.886Z,4.27
2019-05-22T23:19:00.161Z,4.50
2019-05-22T23:21:28.486Z,3.97
2019-05-22T23:23:56.795Z,3.60
2019-05-22T23:26:27.508Z,4.50
2019-05-22T23:29:00.612Z,3.70
2019-05-22T23:31:32.871Z,4.40
2019-05-22T23:34:03.122Z,4.03
2019-05-22T23:36:35.866Z,4.20
2019-05-22T23:39:11.081Z,3.90
2019-05-22T23:41:42.449Z,4.00
2019-05-22T23:44:15.973Z,4.20
2019-05-22T23:49:35.861Z,3.90
2019-05-22T23:52:08.978Z,3.73
2019-05-22T23:54:44.551Z,3.70
2019-05-22T23:57:17.746Z,4.37
2019-05-22T23:59:50.761Z,4.03
